sensor_id;sensor_type;location;lat;lon;timestamp;pressure;altitude;pressure_sealevel;temperature;humidity
20455;BME280;10386;54.314;10.022;2022-08-19T00:01:50;100203.00;;;18.88;100.00
20455;BME280;10386;54.314;10.022;2022-08-19T00:04:26;100192.88;;;18.88;100.00
20455;BME280;10386;54.314;10.022;2022-08-19T00:06:54;100187.00;;;18.91;100.00
20455;BME280;10386;54.314;10.022;2022-08-19T00:09:22;100183.91;;;18.94;100.00
20455;BME280;10386;54.314;10.022;2022-08-19T00:11:52;100178.56;;;18.93;100.00
20455;BME280;10386;54.314;10.022;2022-08-19T00:14:19;100170.31;;;18.93;100.00
20455;BME280;10386;54.314;10.022;2022-08-19T00:16:48;100165.31;;;18.96;100.00
20455;BME280;10386;54.314;10.022;2022-08-19T00:19:16;100149.66;;;18.97;100.00
20455;BME280;10386;54.314;10.022;2022-08-19T00:21:43;100153.28;;;18.97;100.00
20455;BME280;10386;54.314;10.022;2022-08-19T00:24:11;100152.94;;;19.00;100.00
20455;BME280;10386;54.314;10.022;2022-08-19T00:26:38;100147.06;;;19.03;100.00
20455;BME280;10386;54.314;10.022;2022-08-19T00:29:07;100140.16;;;19.07;100.00
20455;BME280;10386;54.314;10.022;2022-08-19T00:31:34;100135.88;;;19.05;100.00
20455;BME280;10386;54.314;10.022;2022-08-19T00:34:02;100127.91;;;19.10;100.00
20455;BME280;10386;54.314;10.022;2022-08-19T00:36:29;100130.88;;;19.08;100.00
20455;BME280;10386;54.314;10.022;2022-08-19T00:38:58;100127.91;;;19.10;100.00
20455;BME280;10386;54.314;10.022;2022-08-19T00:41:25;100115.19;;;19.09;100.00
20455;BME280;10386;54.314;10.022;2022-08-19T00:44:23;100110.41;;;19.03;100.00
20455;BME280;10386;54.314;10.022;2022-08-19T00:46:54;100107.50;;;19.04;100.00
20455;BME280;10386;54.314;10.022;2022-08-19T00:49:40;100102.84;;;19.05;100.00
20455;BME280;10386;54.314;10.022;2022-08-19T00:52:11;100114.88;;;19.04;100.00
20455;BME280;10386;54.314;10.022;2022-08-19T00:54:41;100125.53;;;19.07;100.00
20455;BME280;10386;54.314;10.022;2022-08-19T00:57:10;100127.75;;;19.11;100.00
20455;BME280;10386;54.314;10.022;2022-08-19T00:59:43;100126.03;;;19.10;100.00
20455;BME280;10386;54.314;10.022;2022-08-19T01:02:28;100121.75;;;19.08;100.00
20455;BME280;10386;54.314;10.022;2022-08-19T01:04:56;100123.28;;;19.10;100.00
20455;BME280;10386;54.314;10.022;2022-08-19T01:07:24;100115.03;;;19.10;100.00
20455;BME280;10386;54.314;10.022;2022-08-19T01:09:51;100114.38;;;19.08;100.00
20455;BME280;10386;54.314;10.022;2022-08-19T01:12:18;100112.44;;;19.09;100.00
20455;BME280;10386;54.314;10.022;2022-08-19T01:14:46;100107.50;;;19.04;100.00
20455;BME280;10386;54.314;10.022;2022-08-19T01:17:14;100101.28;;;19.10;100.00
20455;BME280;10386;54.314;10.022;2022-08-19T01:19:43;100104.19;;;19.09;100.00
20455;BME280;10386;54.314;10.022;2022-08-19T01:22:26;100107.63;;;19.11;100.00
20455;BME280;10386;54.314;10.022;2022-08-19T01:24:59;100097.28;;;19.13;100.00
20455;BME280;10386;54.314;10.022;2022-08-19T01:27:27;100090.28;;;19.10;100.00
20455;BME280;10386;54.314;10.022;2022-08-19T01:30:09;100093.56;;;19.06;100.00
20455;BME280;10386;54.314;10.022;2022-08-19T01:32:37;100091.47;;;19.08;100.00
20455;BME280;10386;54.314;10.022;2022-08-19T01:35:04;100093.38;;;19.07;100.00
20455;BME280;10386;54.314;10.022;2022-08-19T01:37:43;100097.19;;;19.06;100.00
20455;BME280;10386;54.314;10.022;2022-08-19T01:40:11;100094.78;;;19.03;100.00
20455;BME280;10386;54.314;10.022;2022-08-19T01:42:38;100096.31;;;19.06;100.00
20455;BME280;10386;54.314;10.022;2022-08-19T01:45:05;100093.75;;;19.04;100.00
20455;BME280;10386;54.314;10.022;2022-08-19T01:47:37;100093.75;;;19.04;100.00
20455;BME280;10386;54.314;10.022;2022-08-19T01:50:06;100091.38;;;19.01;100.00
20455;BME280;10386;54.314;10.022;2022-08-19T01:52:37;100092.72;;;19.05;100.00
20455;BME280;10386;54.314;10.022;2022-08-19T01:55:06;100081.75;;;18.97;100.00
20455;BME280;10386;54.314;10.022;2022-08-19T01:57:34;100079.84;;;18.98;100.00
20455;BME280;10386;54.314;10.022;2022-08-19T02:00:05;100076.31;;;18.89;100.00
20455;BME280;10386;54.314;10.022;2022-08-19T02:02:32;100074.03;;;18.93;100.00
20455;BME280;10386;54.314;10.022;2022-08-19T02:04:59;100069.94;;;18.89;100.00
20455;BME280;10386;54.314;10.022;2022-08-19T02:07:26;100082.13;;;18.94;100.00
20455;BME280;10386;54.314;10.022;2022-08-19T02:09:54;100077.69;;;18.85;100.00
20455;BME280;10386;54.314;10.022;2022-08-19T02:12:21;100074.94;;;18.85;100.00
20455;BME280;10386;54.314;10.022;2022-08-19T02:14:48;100065.47;;;18.88;100.00
20455;BME280;10386;54.314;10.022;2022-08-19T02:17:15;100060.88;;;18.80;100.00
20455;BME280;10386;54.314;10.022;2022-08-19T02:19:42;100057.31;;;18.72;100.00
20455;BME280;10386;54.314;10.022;2022-08-19T02:22:09;100053.66;;;18.79;100.00
20455;BME280;10386;54.314;10.022;2022-08-19T02:24:35;100052.66;;;18.72;100.00
20455;BME280;10386;54.314;10.022;2022-08-19T02:27:02;100042.16;;;18.76;100.00
20455;BME280;10386;54.314;10.022;2022-08-19T02:29:29;100055.22;;;18.74;100.00
20455;BME280;10386;54.314;10.022;2022-08-19T02:31:56;100055.91;;;18.76;100.00
20455;BME280;10386;54.314;10.022;2022-08-19T02:34:23;100057.25;;;18.80;100.00
20455;BME280;10386;54.314;10.022;2022-08-19T02:36:51;100052.31;;;18.75;100.00
20455;BME280;10386;54.314;10.022;2022-08-19T02:39:18;100046.63;;;18.77;100.00
20455;BME280;10386;54.314;10.022;2022-08-19T02:41:45;100048.00;;;18.73;100.00
20455;BME280;10386;54.314;10.022;2022-08-19T02:44:12;100049.56;;;18.67;100.00
20455;BME280;10386;54.314;10.022;2022-08-19T02:46:57;100046.13;;;18.73;100.00
20455;BME280;10386;54.314;10.022;2022-08-19T02:49:24;100045.78;;;18.68;100.00
20455;BME280;10386;54.314;10.022;2022-08-19T02:54:33;100040.53;;;18.59;100.00
20455;BME280;10386;54.314;10.022;2022-08-19T02:56:59;100049.66;;;18.51;100.00
20455;BME280;10386;54.314;10.022;2022-08-19T02:59:29;100040.38;;;18.52;100.00
20455;BME280;10386;54.314;10.022;2022-08-19T03:01:56;100032.63;;;18.56;100.00
20455;BME280;10386;54.314;10.022;2022-08-19T03:04:23;100021.31;;;18.51;100.00
20455;BME280;10386;54.314;10.022;2022-08-19T03:06:50;100021.81;;;18.54;100.00
20455;BME280;10386;54.314;10.022;2022-08-19T03:09:19;100015.78;;;18.59;100.00
20455;BME280;10386;54.314;10.022;2022-08-19T03:11:46;100012.47;;;18.63;100.00
20455;BME280;10386;54.314;10.022;2022-08-19T03:14:18;100027.09;;;18.64;100.00
20455;BME280;10386;54.314;10.022;2022-08-19T03:16:48;100022.06;;;18.67;100.00
20455;BME280;10386;54.314;10.022;2022-08-19T03:19:16;100015.81;;;18.51;100.00
20455;BME280;10386;54.314;10.022;2022-08-19T03:21:44;100023.66;;;18.62;100.00
20455;BME280;10386;54.314;10.022;2022-08-19T03:24:12;100029.53;;;18.59;100.00
20455;BME280;10386;54.314;10.022;2022-08-19T03:26:42;100026.09;;;18.57;100.00
20455;BME280;10386;54.314;10.022;2022-08-19T03:29:11;100016.56;;;18.67;100.00
20455;BME280;10386;54.314;10.022;2022-08-19T03:31:40;100021.09;;;18.60;100.00
20455;BME280;10386;54.314;10.022;2022-08-19T03:34:24;100015.59;;;18.60;100.00
20455;BME280;10386;54.314;10.022;2022-08-19T03:37:01;100018.69;;;18.57;100.00
20455;BME280;10386;54.314;10.022;2022-08-19T03:39:29;100011.44;;;18.64;100.00
20455;BME280;10386;54.314;10.022;2022-08-19T03:41:57;100006.84;;;18.57;100.00
20455;BME280;10386;54.314;10.022;2022-08-19T03:44:46;100004.59;;;18.60;100.00
20455;BME280;10386;54.314;10.022;2022-08-19T03:47:13;100007.84;;;18.64;100.00
20455;BME280;10386;54.314;10.022;2022-08-19T03:49:43;100010.59;;;18.64;100.00
20455;BME280;10386;54.314;10.022;2022-08-19T03:52:10;100016.25;;;18.62;100.00
20455;BME280;10386;54.314;10.022;2022-08-19T03:54:37;100020.25;;;18.60;100.00
20455;BME280;10386;54.314;10.022;2022-08-19T03:57:05;100014.03;;;18.66;100.00
20455;BME280;10386;54.314;10.022;2022-08-19T03:59:34;100025.19;;;18.64;100.00
20455;BME280;10386;54.314;10.022;2022-08-19T04:02:06;100027.91;;;18.72;100.00
20455;BME280;10386;54.314;10.022;2022-08-19T04:04:38;100022.44;;;18.64;100.00
20455;BME280;10386;54.314;10.022;2022-08-19T04:07:05;100032.22;;;18.67;100.00
20455;BME280;10386;54.314;10.022;2022-08-19T04:09:34;100030.16;;;18.69;100.00
20455;BME280;10386;54.314;10.022;2022-08-19T04:12:01;100023.47;;;18.71;100.00
20455;BME280;10386;54.314;10.022;2022-08-19T04:14:29;100020.00;;;18.69;100.00
20455;BME280;10386;54.314;10.022;2022-08-19T04:17:01;100014.84;;;18.74;100.00
20455;BME280;10386;54.314;10.022;2022-08-19T04:19:33;100011.38;;;18.80;100.00
20455;BME280;10386;54.314;10.022;2022-08-19T04:22:00;100020.47;;;18.81;100.00
20455;BME280;10386;54.314;10.022;2022-08-19T04:24:27;100026.47;;;18.84;100.00
20455;BME280;10386;54.314;10.022;2022-08-19T04:26:54;100026.13;;;18.87;100.00
20455;BME280;10386;54.314;10.022;2022-08-19T04:29:23;100033.38;;;18.80;100.00
20455;BME280;10386;54.314;10.022;2022-08-19T04:31:53;100031.06;;;18.92;100.00
20455;BME280;10386;54.314;10.022;2022-08-19T04:34:28;100037.13;;;18.87;100.00
20455;BME280;10386;54.314;10.022;2022-08-19T04:36:58;100030.56;;;18.88;100.00
20455;BME280;10386;54.314;10.022;2022-08-19T04:39:29;100031.25;;;18.90;100.00
20455;BME280;10386;54.314;10.022;2022-08-19T04:42:18;100030.22;;;18.91;100.00
20455;BME280;10386;54.314;10.022;2022-08-19T04:45:10;100022.69;;;18.85;100.00
20455;BME280;10386;54.314;10.022;2022-08-19T04:47:39;100018.34;;;18.91;100.00
20455;BME280;10386;54.314;10.022;2022-08-19T04:50:25;100021.75;;;18.93;100.00
20455;BME280;10386;54.314;10.022;2022-08-19T04:52:53;100026.78;;;18.89;100.00
20455;BME280;10386;54.314;10.022;2022-08-19T04:55:22;100032.44;;;18.88;100.00
20455;BME280;10386;54.314;10.022;2022-08-19T04:57:52;100033.13;;;18.90;100.00
20455;BME280;10386;54.314;10.022;2022-08-19T05:00:20;100033.69;;;18.85;100.00
20455;BME280;10386;54.314;10.022;2022-08-19T05:02:46;100036.06;;;18.88;100.00
20455;BME280;10386;54.314;10.022;2022-08-19T05:05:16;100034.00;;;18.90;100.00
20455;BME280;10386;54.314;10.022;2022-08-19T05:07:43;100030.88;;;18.93;100.00
20455;BME280;10386;54.314;10.022;2022-08-19T05:10:10;100036.81;;;18.82;100.00
20455;BME280;10386;54.314;10.022;2022-08-19T05:12:38;100026.41;;;18.92;100.00
20455;BME280;10386;54.314;10.022;2022-08-19T05:15:06;100026.78;;;18.89;100.00
20455;BME280;10386;54.314;10.022;2022-08-19T05:17:35;100024.75;;;18.83;100.00
20455;BME280;10386;54.314;10.022;2022-08-19T05:20:07;100031.78;;;18.86;100.00
20455;BME280;10386;54.314;10.022;2022-08-19T05:22:52;100027.16;;;18.86;100.00
20455;BME280;10386;54.314;10.022;2022-08-19T05:25:21;100029.84;;;18.94;100.00
20455;BME280;10386;54.314;10.022;2022-08-19T05:27:48;100025.44;;;18.85;100.00
20455;BME280;10386;54.314;10.022;2022-08-19T05:30:16;100027.00;;;18.80;100.00
20455;BME280;10386;54.314;10.022;2022-08-19T05:32:43;100039.72;;;18.81;100.00
20455;BME280;10386;54.314;10.022;2022-08-19T05:35:14;100039.25;;;18.77;100.00
20455;BME280;10386;54.314;10.022;2022-08-19T05:37:41;100031.31;;;18.82;100.00
20455;BME280;10386;54.314;10.022;2022-08-19T05:40:09;100029.22;;;18.84;100.00
20455;BME280;10386;54.314;10.022;2022-08-19T05:42:36;100041.22;;;18.91;100.00
20455;BME280;10386;54.314;10.022;2022-08-19T05:45:04;100054.66;;;18.86;100.00
20455;BME280;10386;54.314;10.022;2022-08-19T05:47:32;100050.66;;;18.89;100.00
20455;BME280;10386;54.314;10.022;2022-08-19T05:49:59;100048.59;;;18.91;100.00
20455;BME280;10386;54.314;10.022;2022-08-19T05:52:30;100050.00;;;18.87;100.00
20455;BME280;10386;54.314;10.022;2022-08-19T05:54:58;100047.59;;;18.84;100.00
20455;BME280;10386;54.314;10.022;2022-08-19T05:57:25;100046.44;;;18.78;100.00
20455;BME280;10386;54.314;10.022;2022-08-19T05:59:55;100045.00;;;18.90;100.00
20455;BME280;10386;54.314;10.022;2022-08-19T06:02:30;100052.16;;;18.99;100.00
20455;BME280;10386;54.314;10.022;2022-08-19T06:04:57;100038.41;;;18.99;100.00
20455;BME280;10386;54.314;10.022;2022-08-19T06:07:24;100039.69;;;19.11;100.00
20455;BME280;10386;54.314;10.022;2022-08-19T06:09:51;100035.47;;;19.01;100.00
20455;BME280;10386;54.314;10.022;2022-08-19T06:12:31;100033.59;;;19.01;100.00
20455;BME280;10386;54.314;10.022;2022-08-19T06:15:06;100034.63;;;19.00;100.00
20455;BME280;10386;54.314;10.022;2022-08-19T06:17:33;100035.78;;;19.06;100.00
20455;BME280;10386;54.314;10.022;2022-08-19T06:20:07;100028.50;;;18.90;100.00
20455;BME280;10386;54.314;10.022;2022-08-19T06:22:39;100031.78;;;18.86;100.00
20455;BME280;10386;54.314;10.022;2022-08-19T06:25:06;100039.13;;;18.93;100.00
20455;BME280;10386;54.314;10.022;2022-08-19T06:27:36;100033.50;;;18.87;100.00
20455;BME280;10386;54.314;10.022;2022-08-19T06:30:14;99995.34;;;18.84;100.00
20455;BME280;10386;54.314;10.022;2022-08-19T06:32:41;99998.09;;;18.84;100.00
20455;BME280;10386;54.314;10.022;2022-08-19T06:35:08;100001.53;;;18.86;100.00
20455;BME280;10386;54.314;10.022;2022-08-19T06:37:36;99992.84;;;18.97;100.00
20455;BME280;10386;54.314;10.022;2022-08-19T06:40:07;99981.16;;;18.95;100.00
20455;BME280;10386;54.314;10.022;2022-08-19T06:42:35;99972.84;;;19.03;100.00
20455;BME280;10386;54.314;10.022;2022-08-19T06:45:02;99965.09;;;19.06;100.00
20455;BME280;10386;54.314;10.022;2022-08-19T06:47:35;99961.69;;;19.04;100.00
20455;BME280;10386;54.314;10.022;2022-08-19T06:50:02;99966.97;;;19.06;100.00
20455;BME280;10386;54.314;10.022;2022-08-19T06:52:32;99965.28;;;19.05;100.00
20455;BME280;10386;54.314;10.022;2022-08-19T06:55:03;99959.00;;;18.96;100.00
20455;BME280;10386;54.314;10.022;2022-08-19T06:57:32;99966.31;;;19.04;100.00
20455;BME280;10386;54.314;10.022;2022-08-19T07:00:00;99972.00;;;19.02;100.00
20455;BME280;10386;54.314;10.022;2022-08-19T07:02:27;99978.19;;;19.04;100.00
20455;BME280;10386;54.314;10.022;2022-08-19T07:04:54;99966.88;;;18.99;100.00
20455;BME280;10386;54.314;10.022;2022-08-19T07:07:24;99969.06;;;19.04;100.00
20455;BME280;10386;54.314;10.022;2022-08-19T07:09:51;99959.66;;;18.98;100.00
20455;BME280;10386;54.314;10.022;2022-08-19T07:12:31;99970.09;;;19.03;100.00
20455;BME280;10386;54.314;10.022;2022-08-19T07:15:06;99972.56;;;18.98;100.00
20455;BME280;10386;54.314;10.022;2022-08-19T07:17:35;99970.84;;;18.97;100.00
20455;BME280;10386;54.314;10.022;2022-08-19T07:20:06;99967.56;;;19.01;100.00
20455;BME280;10386;54.314;10.022;2022-08-19T07:22:36;99975.38;;;19.12;100.00
20455;BME280;10386;54.314;10.022;2022-08-19T07:25:07;99982.38;;;19.23;100.00
20455;BME280;10386;54.314;10.022;2022-08-19T07:27:35;99991.47;;;19.23;100.00
20455;BME280;10386;54.314;10.022;2022-08-19T07:30:02;99988.09;;;19.13;100.00
20455;BME280;10386;54.314;10.022;2022-08-19T07:32:29;99990.84;;;19.13;100.00
20455;BME280;10386;54.314;10.022;2022-08-19T07:34:58;99991.69;;;19.22;100.00
20455;BME280;10386;54.314;10.022;2022-08-19T07:37:27;99991.19;;;19.18;100.00
20455;BME280;10386;54.314;10.022;2022-08-19T07:40:00;99991.13;;;19.26;100.00
20455;BME280;10386;54.314;10.022;2022-08-19T07:42:27;99985.72;;;19.10;100.00
20455;BME280;10386;54.314;10.022;2022-08-19T07:44:57;99999.81;;;19.15;100.00
20455;BME280;10386;54.314;10.022;2022-08-19T07:47:24;99987.38;;;19.19;100.00
20455;BME280;10386;54.314;10.022;2022-08-19T07:50:11;99988.47;;;19.10;100.00
20455;BME280;10386;54.314;10.022;2022-08-19T07:52:38;100004.66;;;19.05;100.00
20455;BME280;10386;54.314;10.022;2022-08-19T07:55:08;100003.94;;;19.11;100.00
20455;BME280;10386;54.314;10.022;2022-08-19T07:57:55;100016.78;;;18.96;100.00
20455;BME280;10386;54.314;10.022;2022-08-19T08:00:22;100022.56;;;19.01;100.00
20455;BME280;10386;54.314;10.022;2022-08-19T08:02:51;100025.44;;;19.08;100.00
20455;BME280;10386;54.314;10.022;2022-08-19T08:05:21;100017.75;;;19.03;100.00
20455;BME280;10386;54.314;10.022;2022-08-19T08:08:13;100023.72;;;19.07;100.00
20455;BME280;10386;54.314;10.022;2022-08-19T08:11:11;100009.97;;;19.15;100.00
20455;BME280;10386;54.314;10.022;2022-08-19T08:13:41;99997.56;;;19.11;100.00
20455;BME280;10386;54.314;10.022;2022-08-19T08:16:08;99995.47;;;19.13;100.00
20455;BME280;10386;54.314;10.022;2022-08-19T08:18:39;99989.41;;;19.25;100.00
20455;BME280;10386;54.314;10.022;2022-08-19T08:21:16;99988.44;;;19.18;100.00
20455;BME280;10386;54.314;10.022;2022-08-19T08:23:43;99987.31;;;19.27;100.00
20455;BME280;10386;54.314;10.022;2022-08-19T08:26:10;99987.63;;;19.32;100.00
20455;BME280;10386;54.314;10.022;2022-08-19T08:28:41;99995.81;;;19.40;100.00
20455;BME280;10386;54.314;10.022;2022-08-19T08:31:13;99988.97;;;19.36;100.00
20455;BME280;10386;54.314;10.022;2022-08-19T08:33:40;99992.06;;;19.55;100.00
20455;BME280;10386;54.314;10.022;2022-08-19T08:36:09;99994.84;;;19.70;100.00
20455;BME280;10386;54.314;10.022;2022-08-19T08:38:36;99988.22;;;19.79;100.00
20455;BME280;10386;54.314;10.022;2022-08-19T08:43:48;99992.81;;;19.50;100.00
20455;BME280;10386;54.314;10.022;2022-08-19T08:46:21;99991.94;;;19.49;100.00
20455;BME280;10386;54.314;10.022;2022-08-19T08:49:04;99989.38;;;19.48;100.00
20455;BME280;10386;54.314;10.022;2022-08-19T08:51:39;99996.09;;;19.45;100.00
20455;BME280;10386;54.314;10.022;2022-08-19T08:54:10;99997.94;;;19.52;100.00
20455;BME280;10386;54.314;10.022;2022-08-19T08:56:39;100003.75;;;19.57;100.00
20455;BME280;10386;54.314;10.022;2022-08-19T08:59:45;99996.69;;;19.55;100.00
20455;BME280;10386;54.314;10.022;2022-08-19T09:02:18;99995.69;;;19.56;100.00
20455;BME280;10386;54.314;10.022;2022-08-19T09:04:45;100001.75;;;19.52;100.00
20455;BME280;10386;54.314;10.022;2022-08-19T09:15:40;99999.78;;;19.60;100.00
20455;BME280;10386;54.314;10.022;2022-08-19T09:18:13;99991.72;;;19.73;100.00
20455;BME280;10386;54.314;10.022;2022-08-19T09:20:46;99998.44;;;19.70;100.00
20455;BME280;10386;54.314;10.022;2022-08-19T09:23:16;100008.78;;;19.68;100.00
20455;BME280;10386;54.314;10.022;2022-08-19T09:25:43;100015.34;;;19.67;100.00
20455;BME280;10386;54.314;10.022;2022-08-19T09:28:11;100015.84;;;19.71;100.00
20455;BME280;10386;54.314;10.022;2022-08-19T09:30:48;100009.28;;;19.72;100.00
20455;BME280;10386;54.314;10.022;2022-08-19T09:33:18;100019.53;;;19.63;100.00
20455;BME280;10386;54.314;10.022;2022-08-19T09:35:46;100023.81;;;19.66;100.00
20455;BME280;10386;54.314;10.022;2022-08-19T09:38:20;100026.56;;;19.66;100.00
20455;BME280;10386;54.314;10.022;2022-08-19T09:40:48;100033.44;;;19.48;100.00
20455;BME280;10386;54.314;10.022;2022-08-19T09:43:16;100030.44;;;19.57;100.00
20455;BME280;10386;54.314;10.022;2022-08-19T09:46:05;100036.25;;;19.40;100.00
20455;BME280;10386;54.314;10.022;2022-08-19T09:48:33;100039.06;;;19.32;100.00
20455;BME280;10386;54.314;10.022;2022-08-19T09:51:06;100048.00;;;19.34;100.00
20455;BME280;10386;54.314;10.022;2022-08-19T09:53:38;100044.59;;;19.32;100.00
20455;BME280;10386;54.314;10.022;2022-08-19T09:56:06;100047.44;;;19.38;100.00
20455;BME280;10386;54.314;10.022;2022-08-19T09:58:35;100046.03;;;19.42;100.00
20455;BME280;10386;54.314;10.022;2022-08-19T10:01:04;100039.63;;;19.50;100.00
20455;BME280;10386;54.314;10.022;2022-08-19T10:03:33;100031.53;;;19.48;100.00
20455;BME280;10386;54.314;10.022;2022-08-19T10:06:02;100034.47;;;19.47;100.00
20455;BME280;10386;54.314;10.022;2022-08-19T10:08:33;100034.75;;;19.74;100.00
20455;BME280;10386;54.314;10.022;2022-08-19T10:11:02;100025.22;;;19.62;100.00
20455;BME280;10386;54.314;10.022;2022-08-19T10:13:50;100032.75;;;19.68;100.00
20455;BME280;10386;54.314;10.022;2022-08-19T10:16:21;100025.16;;;19.70;100.00
20455;BME280;10386;54.314;10.022;2022-08-19T10:18:56;100028.09;;;19.68;100.00
20455;BME280;10386;54.314;10.022;2022-08-19T10:21:31;100041.31;;;19.73;100.00
20455;BME280;10386;54.314;10.022;2022-08-19T10:24:00;100043.78;;;19.82;100.00
20455;BME280;10386;54.314;10.022;2022-08-19T10:26:33;100040.41;;;19.95;100.00
20455;BME280;10386;54.314;10.022;2022-08-19T10:29:02;100050.25;;;19.89;100.00
20455;BME280;10386;54.314;10.022;2022-08-19T10:31:32;100052.84;;;19.91;100.00
20455;BME280;10386;54.314;10.022;2022-08-19T10:34:19;100064.22;;;19.88;100.00
20455;BME280;10386;54.314;10.022;2022-08-19T10:36:54;100059.63;;;20.03;100.00
20455;BME280;10386;54.314;10.022;2022-08-19T10:39:31;100066.00;;;20.18;100.00
20455;BME280;10386;54.314;10.022;2022-08-19T10:42:09;100064.88;;;20.27;100.00
20455;BME280;10386;54.314;10.022;2022-08-19T10:44:40;100087.50;;;20.22;100.00
20455;BME280;10386;54.314;10.022;2022-08-19T10:47:07;100132.00;;;20.34;100.00
20455;BME280;10386;54.314;10.022;2022-08-19T10:49:50;100141.41;;;20.25;100.00
20455;BME280;10386;54.314;10.022;2022-08-19T10:52:41;100146.09;;;20.39;100.00
20455;BME280;10386;54.314;10.022;2022-08-19T10:55:22;100149.34;;;20.42;100.00
20455;BME280;10386;54.314;10.022;2022-08-19T10:58:16;100151.13;;;20.35;100.00
20455;BME280;10386;54.314;10.022;2022-08-19T11:00:54;100162.56;;;20.47;100.00
20455;BME280;10386;54.314;10.022;2022-08-19T11:03:26;100169.84;;;20.40;100.00
20455;BME280;10386;54.314;10.022;2022-08-19T11:05:59;100181.59;;;20.42;100.00
20455;BME280;10386;54.314;10.022;2022-08-19T11:08:26;100177.31;;;20.68;100.00
20455;BME280;10386;54.314;10.022;2022-08-19T11:10:54;100186.63;;;20.53;100.00
20455;BME280;10386;54.314;10.022;2022-08-19T11:13:24;100201.09;;;20.55;100.00
20455;BME280;10386;54.314;10.022;2022-08-19T11:15:59;100198.41;;;20.98;100.00
20455;BME280;10386;54.314;10.022;2022-08-19T11:18:43;100225.63;;;20.87;100.00
20455;BME280;10386;54.314;10.022;2022-08-19T11:21:12;100239.50;;;20.56;100.00
20455;BME280;10386;54.314;10.022;2022-08-19T11:23:39;100230.97;;;20.66;100.00
20455;BME280;10386;54.314;10.022;2022-08-19T11:26:06;100235.78;;;20.49;100.00
20455;BME280;10386;54.314;10.022;2022-08-19T11:28:33;100243.16;;;20.57;100.00
20455;BME280;10386;54.314;10.022;2022-08-19T11:31:00;100248.22;;;20.68;100.00
20455;BME280;10386;54.314;10.022;2022-08-19T11:33:27;100246.66;;;20.65;100.00
20455;BME280;10386;54.314;10.022;2022-08-19T11:35:59;100260.59;;;20.72;100.00
20455;BME280;10386;54.314;10.022;2022-08-19T11:38:27;100273.66;;;20.55;100.00
20455;BME280;10386;54.314;10.022;2022-08-19T11:41:02;100278.44;;;20.61;100.00
20455;BME280;10386;54.314;10.022;2022-08-19T11:43:30;100284.97;;;20.46;100.00
20455;BME280;10386;54.314;10.022;2022-08-19T11:46:08;100289.53;;;20.31;100.00
20455;BME280;10386;54.314;10.022;2022-08-19T11:48:37;100298.81;;;20.15;100.00
20455;BME280;10386;54.314;10.022;2022-08-19T11:51:13;100294.66;;;20.19;100.00
20455;BME280;10386;54.314;10.022;2022-08-19T11:53:40;100299.78;;;20.22;100.00
20455;BME280;10386;54.314;10.022;2022-08-19T11:56:08;100299.53;;;20.32;100.00
20455;BME280;10386;54.314;10.022;2022-08-19T11:58:36;100304.31;;;20.38;100.00
20455;BME280;10386;54.314;10.022;2022-08-19T12:01:13;100307.44;;;20.12;100.00
20455;BME280;10386;54.314;10.022;2022-08-19T12:03:44;100301.00;;;20.20;100.00
20455;BME280;10386;54.314;10.022;2022-08-19T12:06:17;100303.28;;;20.16;100.00
20455;BME280;10386;54.314;10.022;2022-08-19T12:08:45;100302.84;;;20.27;100.00
20455;BME280;10386;54.314;10.022;2022-08-19T12:11:14;100304.06;;;20.25;100.00
20455;BME280;10386;54.314;10.022;2022-08-19T12:13:41;100299.72;;;20.30;100.00
20455;BME280;10386;54.314;10.022;2022-08-19T12:16:16;100313.88;;;20.27;100.00
20455;BME280;10386;54.314;10.022;2022-08-19T12:18:43;100305.63;;;20.27;100.00
20455;BME280;10386;54.314;10.022;2022-08-19T12:21:14;100305.34;;;20.37;100.00
20455;BME280;10386;54.314;10.022;2022-08-19T12:23:42;100300.88;;;20.36;100.00
20455;BME280;10386;54.314;10.022;2022-08-19T12:26:10;100305.84;;;20.40;100.00
20455;BME280;10386;54.314;10.022;2022-08-19T12:28:38;100304.00;;;20.55;100.00
20455;BME280;10386;54.314;10.022;2022-08-19T12:31:05;100301.75;;;20.73;100.00
20455;BME280;10386;54.314;10.022;2022-08-19T12:33:32;100298.16;;;20.73;100.00
20455;BME280;10386;54.314;10.022;2022-08-19T12:36:04;100285.03;;;20.75;100.00
20455;BME280;10386;54.314;10.022;2022-08-19T12:38:32;100292.56;;;21.46;100.00
20455;BME280;10386;54.314;10.022;2022-08-19T12:41:01;100321.44;;;21.29;100.00
20455;BME280;10386;54.314;10.022;2022-08-19T12:43:33;100321.41;;;21.58;100.00
20455;BME280;10386;54.314;10.022;2022-08-19T12:46:03;100352.53;;;21.23;100.00
20455;BME280;10386;54.314;10.022;2022-08-19T12:48:32;100349.81;;;21.81;100.00
20455;BME280;10386;54.314;10.022;2022-08-19T12:51:06;100375.47;;;21.75;100.00
20455;BME280;10386;54.314;10.022;2022-08-19T12:53:33;100398.88;;;21.50;100.00
20455;BME280;10386;54.314;10.022;2022-08-19T12:56:05;100408.50;;;21.54;100.00
20455;BME280;10386;54.314;10.022;2022-08-19T12:58:34;100427.34;;;21.51;100.00
20455;BME280;10386;54.314;10.022;2022-08-19T13:01:10;100440.19;;;21.81;100.00
20455;BME280;10386;54.314;10.022;2022-08-19T13:03:38;100463.44;;;22.01;100.00
20455;BME280;10386;54.314;10.022;2022-08-19T13:06:07;100479.66;;;22.04;100.00